Time;durP1;ratioP1;P1;durP2;ratioP2;P2;SDS_P1;SDS_P2;PMS_P1;PMS_P2;Temp;Humidity;BMP_temperature;BMP_pressure;BME280_temperature;BME280_humidity;BME280_pressure;Samples;Min_cycle;Max_cycle;Signal;HPM_P1;HPM_P2
2021/12/03 00:00:17;;;;;;;4.77;2.43;;;;;;;-0.59;100.00;95163.81;5032481;28;24509;-70
2021/12/03 00:02:44;;;;;;;3.17;1.93;;;;;;;-0.50;100.00;95166.06;5032314;28;24944;-71
2021/12/03 00:05:10;;;;;;;3.28;2.22;;;;;;;-0.56;100.00;95174.69;5031829;28;24419;-70
2021/12/03 00:07:40;;;;;;;4.95;2.53;;;;;;;-0.60;100.00;95162.94;5032394;28;24440;-70
2021/12/03 00:10:08;;;;;;;3.20;2.45;;;;;;;-0.58;100.00;95165.47;5032360;28;24498;-72
2021/12/03 00:12:35;;;;;;;3.53;2.50;;;;;;;-0.62;100.00;95182.50;5031979;28;25015;-71
2021/12/03 00:15:03;;;;;;;4.75;2.25;;;;;;;-0.60;100.00;95188.38;5031758;28;24840;-71
2021/12/03 00:17:30;;;;;;;3.80;2.65;;;;;;;-0.59;100.00;95196.84;5031935;28;24408;-71
2021/12/03 00:19:56;;;;;;;7.05;2.60;;;;;;;-0.61;100.00;95206.22;5031809;28;24953;-71
2021/12/03 00:22:22;;;;;;;3.38;2.30;;;;;;;-0.63;100.00;95207.97;5031865;28;25000;-71
2021/12/03 00:24:49;;;;;;;3.80;2.20;;;;;;;-0.63;100.00;95211.38;5031912;28;24829;-71
2021/12/03 00:27:16;;;;;;;4.35;2.35;;;;;;;-0.64;100.00;95217.31;5030470;28;24529;-71
2021/12/03 00:29:42;;;;;;;3.20;2.45;;;;;;;-0.52;100.00;95221.22;5031791;28;24424;-71
2021/12/03 00:32:10;;;;;;;5.15;2.30;;;;;;;-0.55;100.00;95229.78;5031683;28;24430;-71
2021/12/03 00:34:37;;;;;;;5.07;2.70;;;;;;;-0.61;100.00;95231.66;5031673;28;24443;-71
2021/12/03 00:37:03;;;;;;;5.15;2.10;;;;;;;-0.62;100.00;95230.84;5031529;28;24423;-72
2021/12/03 00:39:30;;;;;;;5.63;2.50;;;;;;;-0.66;100.00;95236.88;5031597;28;24976;-73
2021/12/03 00:41:59;;;;;;;5.10;2.90;;;;;;;-0.66;100.00;95236.88;5031576;28;24511;-73
2021/12/03 00:44:26;;;;;;;4.32;2.78;;;;;;;-0.68;100.00;95245.41;5031533;28;24424;-73
2021/12/03 00:46:53;;;;;;;5.22;3.00;;;;;;;-0.74;100.00;95251.53;5031438;28;24537;-73
2021/12/03 00:49:21;;;;;;;4.88;2.70;;;;;;;-0.75;100.00;95247.28;5031366;28;24490;-73
2021/12/03 00:51:47;;;;;;;4.13;2.83;;;;;;;-0.73;100.00;95264.19;5031409;28;24420;-71
2021/12/03 00:54:15;;;;;;;6.93;2.70;;;;;;;-0.78;100.00;95265.16;5031318;28;24419;-71
2021/12/03 00:56:42;;;;;;;5.47;2.65;;;;;;;-0.79;100.00;95268.59;5030952;28;24427;-71
2021/12/03 00:59:09;;;;;;;4.97;2.80;;;;;;;-0.81;100.00;95273.72;5031278;28;24416;-71
2021/12/03 01:01:36;;;;;;;3.53;2.58;;;;;;;-0.82;100.00;95273.75;5031008;28;24416;-71
2021/12/03 01:04:02;;;;;;;3.65;2.67;;;;;;;-0.87;100.00;95288.31;5031035;28;24995;-71
2021/12/03 01:06:30;;;;;;;5.63;3.30;;;;;;;-0.84;100.00;95283.16;5030734;28;24435;-71
2021/12/03 01:08:57;;;;;;;4.27;3.10;;;;;;;-0.90;100.00;95286.66;5030990;28;25016;-71
2021/12/03 01:11:23;;;;;;;3.85;3.10;;;;;;;-0.90;100.00;95288.38;5031169;28;24479;-70
2021/12/03 01:13:50;;;;;;;5.53;3.30;;;;;;;-0.88;100.00;95292.56;5030872;28;25000;-70
2021/12/03 01:16:18;;;;;;;4.72;3.05;;;;;;;-0.85;100.00;95296.75;5030409;28;24422;-71
2021/12/03 01:18:46;;;;;;;4.88;3.20;;;;;;;-0.89;100.00;95300.22;5030971;28;24415;-71
2021/12/03 01:21:14;;;;;;;4.60;3.47;;;;;;;-0.89;100.00;95295.13;5031080;28;24462;-71
2021/12/03 01:23:42;;;;;;;4.73;3.20;;;;;;;-0.80;100.00;95307.63;5030735;28;25055;-71
2021/12/03 01:26:08;;;;;;;6.18;3.42;;;;;;;-0.90;100.00;95308.72;5030475;28;24420;-71
2021/12/03 01:28:35;;;;;;;6.03;3.38;;;;;;;-0.93;100.00;95304.53;5030432;28;24423;-71
2021/12/03 01:31:01;;;;;;;5.40;3.40;;;;;;;-0.87;100.00;95303.56;5030729;28;24431;-71
2021/12/03 01:33:28;;;;;;;5.85;3.03;;;;;;;-0.90;100.00;95301.09;5030824;28;24821;-71
2021/12/03 01:35:54;;;;;;;5.90;3.30;;;;;;;-0.91;100.00;95307.88;5030446;28;24427;-71
2021/12/03 01:38:21;;;;;;;3.75;3.33;;;;;;;-0.95;100.00;95308.84;5030203;28;24957;-71
2021/12/03 01:40:49;;;;;;;4.95;3.00;;;;;;;-0.93;100.00;95306.25;5030568;28;24424;-71
2021/12/03 01:43:21;;;;;;;3.95;3.05;;;;;;;-0.96;100.00;95304.63;5030370;28;24424;-71
2021/12/03 01:45:48;;;;;;;4.55;3.55;;;;;;;-0.92;100.00;95305.41;5030261;28;24420;-73
2021/12/03 01:48:14;;;;;;;6.57;3.35;;;;;;;-0.97;100.00;95316.50;5030474;28;24455;-73
2021/12/03 01:50:43;;;;;;;4.93;3.53;;;;;;;-0.95;100.00;95313.94;5030576;28;24427;-73
2021/12/03 01:53:12;;;;;;;4.70;3.60;;;;;;;-1.02;100.00;95317.50;5030268;28;24435;-73
2021/12/03 01:55:40;;;;;;;3.97;3.47;;;;;;;-1.01;100.00;95314.06;5030160;28;24629;-73
2021/12/03 01:58:08;;;;;;;9.27;3.45;;;;;;;-1.01;100.00;95316.59;5030283;28;24960;-73
2021/12/03 02:00:39;;;;;;;5.53;3.53;;;;;;;-0.99;100.00;95327.59;5030497;28;24466;-71
2021/12/03 02:03:06;;;;;;;5.38;3.55;;;;;;;-0.98;100.00;95319.09;5030474;28;24420;-71
2021/12/03 02:05:33;;;;;;;4.07;2.97;;;;;;;-0.97;100.00;95311.41;5029961;28;24415;-71
2021/12/03 02:08:00;;;;;;;4.73;3.40;;;;;;;-0.99;100.00;95314.88;5030082;28;24510;-71
2021/12/03 02:10:26;;;;;;;3.83;3.42;;;;;;;-0.98;100.00;95311.44;5030014;28;24428;-71
2021/12/03 02:12:53;;;;;;;6.63;3.72;;;;;;;-1.00;100.00;95315.75;5030427;28;24423;-71
2021/12/03 02:15:21;;;;;;;6.00;3.85;;;;;;;-0.96;100.00;95322.44;5029855;28;24423;-71
2021/12/03 02:17:47;;;;;;;5.40;3.67;;;;;;;-0.90;100.00;95329.88;5030157;28;24422;-71
2021/12/03 02:20:15;;;;;;;6.18;3.65;;;;;;;-0.75;100.00;95333.75;5030099;28;24428;-71
2021/12/03 02:22:44;;;;;;;4.05;3.63;;;;;;;-0.83;100.00;95331.41;5030018;28;24419;-71
2021/12/03 02:25:14;;;;;;;7.47;3.90;;;;;;;-0.86;100.00;95345.91;5029706;28;24424;-71
2021/12/03 02:27:41;;;;;;;5.50;3.20;;;;;;;-0.95;100.00;95336.81;5029869;28;24459;-71
2021/12/03 02:30:09;;;;;;;4.18;3.40;;;;;;;-0.88;100.00;95335.78;5030072;28;24431;-71
2021/12/03 02:32:36;;;;;;;4.25;3.35;;;;;;;-0.93;100.00;95341.84;5030074;28;24412;-71
2021/12/03 02:35:04;;;;;;;4.50;3.45;;;;;;;-0.93;100.00;95335.03;5029745;28;24470;-69
2021/12/03 02:37:31;;;;;;;6.25;4.00;;;;;;;-0.87;100.00;95329.81;5029716;28;24953;-72
2021/12/03 02:39:59;;;;;;;4.55;3.70;;;;;;;-0.93;100.00;95334.22;5030106;28;24420;-73
2021/12/03 02:42:25;;;;;;;4.82;3.50;;;;;;;-0.83;100.00;95328.03;5030058;28;24423;-71
2021/12/03 02:44:52;;;;;;;4.90;3.78;;;;;;;-0.70;100.00;95329.41;5029973;28;24422;-73
2021/12/03 02:47:19;;;;;;;4.55;3.28;;;;;;;-0.67;100.00;95329.28;5029730;28;24455;-74
2021/12/03 02:49:45;;;;;;;4.40;3.70;;;;;;;-0.69;100.00;95325.97;5031506;28;24424;-72
2021/12/03 02:52:12;;;;;;;4.97;4.00;;;;;;;-0.71;100.00;95329.41;5033330;28;24423;-71
2021/12/03 02:54:38;;;;;;;5.07;3.60;;;;;;;-0.73;100.00;95330.28;5033402;28;24980;-71
2021/12/03 02:57:07;;;;;;;5.57;3.83;;;;;;;-0.79;100.00;95334.69;5033267;28;24473;-73
2021/12/03 02:59:34;;;;;;;4.63;3.70;;;;;;;-0.89;100.00;95345.97;5033525;28;24423;-72
2021/12/03 03:02:01;;;;;;;4.50;4.07;;;;;;;-0.96;100.00;95347.84;5033422;28;24423;-73
2021/12/03 03:04:27;;;;;;;4.63;3.83;;;;;;;-0.98;100.00;95355.50;5033277;28;24423;-71
2021/12/03 03:06:54;;;;;;;5.20;4.40;;;;;;;-1.00;100.00;95349.63;5032689;28;24455;-73
2021/12/03 03:09:21;;;;;;;4.63;4.10;;;;;;;-1.02;100.00;95351.38;5033401;28;24435;-71
2021/12/03 03:11:47;;;;;;;4.82;3.67;;;;;;;-0.99;100.00;95347.91;5033368;28;24769;-71
2021/12/03 03:14:16;;;;;;;5.03;4.15;;;;;;;-0.98;100.00;95347.03;5033204;28;24423;-71
2021/12/03 03:16:42;;;;;;;5.87;3.87;;;;;;;-0.87;100.00;95345.06;5033285;28;24568;-71
2021/12/03 03:19:11;;;;;;;7.55;4.20;;;;;;;-0.92;100.00;95351.16;5032930;28;24423;-71
2021/12/03 03:21:38;;;;;;;6.45;4.68;;;;;;;-0.95;100.00;95358.84;5033196;28;24518;-71
2021/12/03 03:24:07;;;;;;;5.15;4.38;;;;;;;-0.97;100.00;95361.41;5033155;28;24424;-71
2021/12/03 03:26:34;;;;;;;4.43;4.03;;;;;;;-0.99;100.00;95361.47;5032577;28;24430;-71
2021/12/03 03:29:01;;;;;;;9.18;4.22;;;;;;;-1.02;100.00;95366.63;5032906;28;24411;-71
2021/12/03 03:31:28;;;;;;;5.65;4.07;;;;;;;-1.06;100.00;95370.09;5032898;28;24419;-70
2021/12/03 03:33:55;;;;;;;4.45;3.85;;;;;;;-0.94;100.00;95363.88;5032651;28;24481;-70
2021/12/03 03:36:21;;;;;;;6.22;5.53;;;;;;;-0.89;100.00;95379.00;5032644;28;24419;-71
2021/12/03 03:38:48;;;;;;;5.60;4.63;;;;;;;-0.79;100.00;95375.38;5032956;28;24419;-71
2021/12/03 03:41:15;;;;;;;4.43;3.90;;;;;;;-0.77;100.00;95383.81;5032767;28;24423;-71
2021/12/03 03:43:41;;;;;;;4.72;3.70;;;;;;;-0.80;100.00;95383.88;5032588;28;24428;-71
2021/12/03 03:46:07;;;;;;;4.47;3.60;;;;;;;-0.83;100.00;95384.78;5032188;28;24534;-71
2021/12/03 03:48:35;;;;;;;4.35;3.90;;;;;;;-0.85;100.00;95389.09;5032590;28;24456;-71
2021/12/03 03:51:02;;;;;;;5.22;3.90;;;;;;;-0.92;100.00;95387.56;5032411;28;24953;-71
2021/12/03 03:53:28;;;;;;;4.60;4.03;;;;;;;-1.02;100.00;95394.56;5032475;28;24904;-71
2021/12/03 03:55:55;;;;;;;5.93;3.90;;;;;;;-1.10;100.00;95393.09;5032096;28;24435;-70
2021/12/03 03:58:22;;;;;;;5.10;3.05;;;;;;;-1.16;100.00;95388.97;5032221;28;24941;-70
2021/12/03 04:00:48;;;;;;;5.47;3.35;;;;;;;-1.14;100.00;95388.97;5032215;28;24423;-70
2021/12/03 04:03:15;;;;;;;4.78;3.85;;;;;;;-1.14;100.00;95389.78;5032548;28;24447;-70
2021/12/03 04:05:43;;;;;;;4.95;3.42;;;;;;;-1.14;100.00;95389.78;5031956;28;24416;-73
2021/12/03 04:08:10;;;;;;;6.72;3.90;;;;;;;-1.15;100.00;95405.06;5032075;28;24868;-73
2021/12/03 04:10:36;;;;;;;5.35;3.63;;;;;;;-1.11;100.00;95402.44;5032063;28;25052;-73
2021/12/03 04:13:03;;;;;;;5.03;3.83;;;;;;;-1.21;100.00;95416.22;5032142;28;24778;-71
2021/12/03 04:15:30;;;;;;;4.85;3.55;;;;;;;-1.15;100.00;95418.63;5031579;28;24412;-73
2021/12/03 04:17:56;;;;;;;5.47;3.75;;;;;;;-1.18;100.00;95423.75;5032098;28;24420;-73
2021/12/03 04:20:23;;;;;;;3.67;3.35;;;;;;;-1.13;100.00;95416.03;5031998;28;24420;-73
2021/12/03 04:22:51;;;;;;;4.80;3.80;;;;;;;-1.13;100.00;95427.03;5032034;28;24442;-72
2021/12/03 04:25:21;;;;;;;4.03;3.60;;;;;;;-1.15;100.00;95426.25;5031677;28;24782;-71
2021/12/03 04:27:49;;;;;;;5.53;3.90;;;;;;;-1.18;100.00;95431.38;5032011;28;25009;-73
2021/12/03 04:30:18;;;;;;;4.75;3.28;;;;;;;-1.14;100.00;95432.16;5032129;28;24424;-73
2021/12/03 04:32:45;;;;;;;6.65;4.03;;;;;;;-1.19;100.00;95432.22;5031862;28;24422;-70
2021/12/03 04:35:12;;;;;;;6.18;4.18;;;;;;;-1.18;100.00;95430.56;5031231;28;24948;-68
2021/12/03 04:37:41;;;;;;;6.03;3.90;;;;;;;-1.19;100.00;95436.50;5031606;28;24420;-69
2021/12/03 04:40:12;;;;;;;8.80;3.65;;;;;;;-1.14;100.00;95438.06;5031522;28;24470;-70
2021/12/03 04:42:39;;;;;;;6.28;3.97;;;;;;;-1.12;100.00;95438.03;5031416;28;24975;-70
2021/12/03 04:45:07;;;;;;;5.13;3.63;;;;;;;-1.18;100.00;95436.47;5031388;28;24470;-71
2021/12/03 04:47:34;;;;;;;5.63;3.75;;;;;;;-1.23;100.00;95435.72;5031332;28;24452;-70
2021/12/03 04:50:01;;;;;;;5.22;3.33;;;;;;;-1.29;100.00;95439.25;5031552;28;24444;-70
2021/12/03 04:52:28;;;;;;;4.95;3.53;;;;;;;-1.27;100.00;95444.28;5031395;28;24423;-70
2021/12/03 04:54:54;;;;;;;7.00;4.55;;;;;;;-1.09;100.00;95440.50;5031075;28;24813;-70
2021/12/03 04:57:22;;;;;;;5.70;4.33;;;;;;;-1.01;100.00;95446.25;5031181;28;24821;-71
2021/12/03 04:59:48;;;;;;;6.38;3.88;;;;;;;-0.87;100.00;95440.84;5031403;28;24423;-71
2021/12/03 05:02:16;;;;;;;4.07;3.67;;;;;;;-0.85;100.00;95446.75;5031293;28;24426;-71
2021/12/03 05:04:42;;;;;;;7.47;3.90;;;;;;;-0.81;100.00;95451.72;5031126;28;24469;-70
2021/12/03 05:07:27;;;;;;;3.70;3.20;;;;;;;-0.90;100.00;95457.00;5030915;28;24419;-70
2021/12/03 05:09:54;;;;;;;5.60;3.63;;;;;;;-1.08;100.00;95465.03;5031256;28;24465;-69
2021/12/03 05:12:22;;;;;;;4.78;3.70;;;;;;;-1.16;100.00;95460.13;5030693;28;24426;-72
2021/12/03 05:14:49;;;;;;;6.10;3.83;;;;;;;-1.23;100.00;95456.88;5030996;28;24420;-70
2021/12/03 05:17:15;;;;;;;4.10;3.67;;;;;;;-1.39;100.00;95458.09;5030724;28;24419;-70
2021/12/03 05:19:42;;;;;;;4.03;3.20;;;;;;;-1.41;100.00;95456.44;5030846;28;24423;-70
2021/12/03 05:22:09;;;;;;;3.30;2.53;;;;;;;-1.41;100.00;95469.13;5030863;28;24419;-70
2021/12/03 05:24:36;;;;;;;4.78;2.90;;;;;;;-1.42;100.00;95464.94;5030968;28;24423;-70
2021/12/03 05:27:02;;;;;;;3.22;2.53;;;;;;;-1.48;100.00;95469.28;5030283;28;25035;-72
2021/12/03 05:29:30;;;;;;;5.10;2.97;;;;;;;-1.52;100.00;95480.38;5030792;28;24500;-72
2021/12/03 05:31:56;;;;;;;3.20;2.75;;;;;;;-1.57;100.00;95489.78;5030705;28;24419;-73
2021/12/03 05:34:24;;;;;;;5.28;3.10;;;;;;;-1.56;100.00;95480.44;5030638;28;24422;-70
2021/12/03 05:36:51;;;;;;;4.97;3.05;;;;;;;-1.60;100.00;95478.84;5030124;28;24438;-70
2021/12/03 05:39:17;;;;;;;4.63;2.88;;;;;;;-1.61;100.00;95489.88;5030743;28;24416;-71
2021/12/03 05:41:44;;;;;;;4.22;3.30;;;;;;;-1.60;100.00;95487.28;5030595;28;24424;-70
2021/12/03 05:44:11;;;;;;;3.40;3.00;;;;;;;-1.55;100.00;95494.84;5030634;28;24482;-74
2021/12/03 05:46:38;;;;;;;4.22;2.85;;;;;;;-1.59;100.00;95498.31;5030086;28;24434;-74
2021/12/03 05:49:06;;;;;;;4.05;2.92;;;;;;;-1.64;100.00;95502.63;5030217;28;24448;-73
2021/12/03 05:51:32;;;;;;;30.70;13.95;;;;;;;-1.62;100.00;95509.34;5030391;28;24973;-73
2021/12/03 05:53:59;;;;;;;5.68;4.25;;;;;;;-1.64;100.00;95507.72;5030469;28;24442;-71
2021/12/03 05:56:25;;;;;;;6.10;4.15;;;;;;;-1.63;100.00;95504.28;5029840;28;24975;-71
2021/12/03 05:58:52;;;;;;;6.00;3.30;;;;;;;-1.65;100.00;95511.13;5030398;28;24976;-71
2021/12/03 06:01:19;;;;;;;14.95;7.35;;;;;;;-1.65;100.00;95511.94;5030278;28;24812;-71
2021/12/03 06:03:47;;;;;;;5.53;4.37;;;;;;;-1.62;100.00;95511.06;5030131;28;24423;-71
2021/12/03 06:06:14;;;;;;;15.35;6.82;;;;;;;-1.58;100.00;95518.59;5030007;28;24466;-71
2021/12/03 06:08:41;;;;;;;11.77;8.43;;;;;;;-1.47;100.00;95524.28;5030356;28;24439;-71
2021/12/03 06:11:07;;;;;;;6.20;4.03;;;;;;;-1.39;100.00;95521.59;5030280;28;24423;-71
2021/12/03 06:13:38;;;;;;;5.40;3.58;;;;;;;-1.40;100.00;95514.84;5030234;28;24443;-71
2021/12/03 06:16:05;;;;;;;6.95;3.72;;;;;;;-1.50;100.00;95515.91;5029792;28;24424;-71
2021/12/03 06:18:32;;;;;;;7.25;4.07;;;;;;;-1.51;100.00;95517.59;5029859;28;24427;-71
2021/12/03 06:20:59;;;;;;;4.40;3.72;;;;;;;-1.59;100.00;95523.72;5030251;28;24829;-71
2021/12/03 06:23:26;;;;;;;4.43;3.33;;;;;;;-1.59;100.00;95522.00;5030235;28;24428;-71
2021/12/03 06:25:52;;;;;;;11.63;3.85;;;;;;;-1.52;100.00;95525.22;5033489;28;24415;-71
2021/12/03 06:28:19;;;;;;;5.45;3.33;;;;;;;-1.48;100.00;95525.16;5033802;28;24551;-71
2021/12/03 06:30:45;;;;;;;3.75;2.90;;;;;;;-1.52;100.00;95531.19;5033723;28;24419;-70
2021/12/03 06:33:12;;;;;;;4.85;3.30;;;;;;;-1.51;100.00;95522.69;5034122;28;24419;-69
2021/12/03 06:35:38;;;;;;;4.07;3.15;;;;;;;-1.51;100.00;95520.16;5033704;28;24426;-69
2021/12/03 06:38:06;;;;;;;5.90;3.13;;;;;;;-1.62;100.00;95518.69;5033882;28;24774;-74
2021/12/03 06:40:33;;;;;;;4.27;2.73;;;;;;;-1.62;100.00;95531.38;5034075;28;24423;-73
2021/12/03 06:42:59;;;;;;;8.35;5.15;;;;;;;-1.67;100.00;95533.16;5033679;28;24423;-73
2021/12/03 06:45:26;;;;;;;3.53;2.53;;;;;;;-1.70;100.00;95529.00;5033285;28;24419;-72
2021/12/03 06:47:53;;;;;;;8.15;4.65;;;;;;;-1.66;100.00;95533.13;5033387;28;24972;-72
2021/12/03 06:50:20;;;;;;;8.52;4.43;;;;;;;-1.62;100.00;95528.84;5033730;28;24452;-71
2021/12/03 06:52:52;;;;;;;4.45;3.22;;;;;;;-1.61;100.00;95533.88;5033539;28;24782;-72
2021/12/03 06:55:21;;;;;;;25.37;11.37;;;;;;;-1.65;100.00;95550.03;5032927;28;24449;-71
2021/12/03 06:57:48;;;;;;;9.60;5.97;;;;;;;-1.65;100.00;95551.75;5032968;28;24440;-71
2021/12/03 07:00:16;;;;;;;10.18;5.63;;;;;;;-1.66;100.00;95552.63;5033339;28;24754;-72
2021/12/03 07:02:42;;;;;;;4.38;2.90;;;;;;;-1.59;100.00;95557.56;5033131;28;24945;-72
2021/12/03 07:05:10;;;;;;;4.95;3.10;;;;;;;-1.57;100.00;95552.44;5032772;28;24424;-73
2021/12/03 07:07:36;;;;;;;4.15;3.10;;;;;;;-1.61;100.00;95551.66;5032839;28;24420;-72
2021/12/03 07:10:03;;;;;;;3.83;3.05;;;;;;;-1.56;100.00;95549.03;5032991;28;24828;-72
2021/12/03 07:12:31;;;;;;;3.72;2.90;;;;;;;-1.52;100.00;95556.56;5032930;28;24427;-72
2021/12/03 07:14:58;;;;;;;7.63;2.95;;;;;;;-1.52;100.00;95551.50;5033186;28;24427;-71
2021/12/03 07:17:29;;;;;;;3.95;3.33;;;;;;;-1.50;100.00;95557.38;5033297;28;24426;-75
2021/12/03 07:19:57;;;;;;;3.50;2.95;;;;;;;-1.50;100.00;95564.16;5033252;28;24431;-73
2021/12/03 07:22:24;;;;;;;4.30;3.00;;;;;;;-1.46;100.00;95560.69;5033367;28;24478;-70
2021/12/03 07:24:50;;;;;;;3.55;3.10;;;;;;;-1.49;100.00;95564.09;5032751;28;24435;-74
2021/12/03 07:27:17;;;;;;;5.55;3.45;;;;;;;-1.52;100.00;95571.81;5032419;28;24439;-72
2021/12/03 07:29:47;;;;;;;4.13;3.25;;;;;;;-1.58;100.00;95571.91;5032910;28;24511;-71
2021/12/03 07:32:14;;;;;;;3.75;3.00;;;;;;;-1.59;100.00;95577.88;5032976;28;24420;-70
2021/12/03 07:34:40;;;;;;;3.58;2.90;;;;;;;-1.56;100.00;95576.94;5032583;28;24817;-72
2021/12/03 07:37:07;;;;;;;4.45;2.80;;;;;;;-1.55;100.00;95581.19;5032514;28;24434;-72
2021/12/03 07:39:33;;;;;;;6.82;3.22;;;;;;;-1.53;100.00;95589.59;5032609;28;24439;-72
2021/12/03 07:42:00;;;;;;;3.67;2.88;;;;;;;-1.58;100.00;95591.41;5032794;28;24477;-70
2021/12/03 07:44:26;;;;;;;6.60;3.10;;;;;;;-1.53;100.00;95594.69;5032690;28;24452;-70
2021/12/03 07:46:54;;;;;;;4.50;2.67;;;;;;;-1.60;100.00;95600.75;5032149;28;24969;-72
2021/12/03 07:49:22;;;;;;;5.80;2.63;;;;;;;-1.62;100.00;95602.47;5032570;28;24459;-71
2021/12/03 07:51:49;;;;;;;3.83;2.63;;;;;;;-1.63;100.00;95599.13;5032531;28;24424;-71
2021/12/03 07:54:15;;;;;;;6.78;4.00;;;;;;;-1.70;100.00;95597.53;5032192;28;24991;-74
2021/12/03 07:56:42;;;;;;;5.20;3.30;;;;;;;-1.53;100.00;95597.22;5032166;28;24456;-71
2021/12/03 07:59:08;;;;;;;3.72;2.40;;;;;;;-1.50;100.00;95595.47;5032423;28;24419;-73
2021/12/03 08:01:35;;;;;;;4.47;2.50;;;;;;;-1.47;100.00;95589.50;5032389;28;24473;-73
2021/12/03 08:04:03;;;;;;;5.70;2.78;;;;;;;-1.49;100.00;95589.50;5032236;28;24428;-70
2021/12/03 08:06:31;;;;;;;4.30;2.53;;;;;;;-1.39;100.00;95586.81;5031652;28;24976;-72
2021/12/03 08:08:57;;;;;;;3.47;2.30;;;;;;;-1.32;100.00;95591.75;5032057;28;24443;-73
2021/12/03 08:11:24;;;;;;;3.90;2.53;;;;;;;-1.32;100.00;95604.44;5032502;28;24431;-72
2021/12/03 08:13:50;;;;;;;3.67;2.38;;;;;;;-1.38;100.00;95593.56;5032172;28;24434;-73
2021/12/03 08:16:16;;;;;;;4.63;1.98;;;;;;;-1.45;100.00;95590.28;5031728;28;24470;-72
2021/12/03 08:18:44;;;;;;;3.08;1.83;;;;;;;-1.41;100.00;95588.53;5031927;28;24434;-72
2021/12/03 08:21:12;;;;;;;4.22;1.95;;;;;;;-1.37;100.00;95588.47;5031776;28;24431;-71
2021/12/03 08:23:38;;;;;;;3.70;2.10;;;;;;;-1.25;100.00;95585.69;5032023;28;24419;-73
2021/12/03 08:26:05;;;;;;;2.92;1.80;;;;;;;-1.10;100.00;95591.31;5031800;28;24439;-71
2021/12/03 08:28:32;;;;;;;3.80;2.10;;;;;;;-1.01;100.00;95597.03;5031498;28;24531;-71
2021/12/03 08:30:59;;;;;;;3.95;1.73;;;;;;;-0.91;100.00;95597.69;5031800;28;24786;-72
2021/12/03 08:33:26;;;;;;;4.07;2.00;;;;;;;-1.06;100.00;95592.94;5031673;28;24957;-72
2021/12/03 08:35:52;;;;;;;4.72;1.98;;;;;;;-0.96;100.00;95591.88;5031335;28;24431;-72
2021/12/03 08:38:20;;;;;;;3.07;1.90;;;;;;;-1.01;100.00;95596.19;5031723;28;24427;-72
2021/12/03 08:40:46;;;;;;;3.78;1.83;;;;;;;-0.99;100.00;95590.22;5031655;28;24416;-72
2021/12/03 08:43:13;;;;;;;2.25;1.63;;;;;;;-0.75;100.00;95590.56;5031523;28;24420;-73
2021/12/03 08:45:40;;;;;;;3.03;1.70;;;;;;;-0.77;100.00;95590.63;5031280;28;24416;-71
2021/12/03 08:48:07;;;;;;;3.77;2.10;;;;;;;-0.67;100.00;95593.78;5030615;28;24980;-72
2021/12/03 08:50:36;;;;;;;6.25;1.92;;;;;;;-0.32;100.00;95587.91;5031507;28;24455;-71
2021/12/03 08:53:12;;;;;;;2.50;1.85;;;;;;;-0.40;100.00;95594.91;5031718;28;24404;-74
2021/12/03 08:55:41;;;;;;;2.15;1.50;;;;;;;-0.73;100.00;95599.84;5031300;28;24428;-72
2021/12/03 08:58:10;;;;;;;3.40;1.85;;;;;;;-0.80;100.00;95605.94;5031528;28;24452;-73
2021/12/03 09:00:37;;;;;;;4.97;1.88;;;;;;;-0.67;100.00;95608.22;5031284;28;25019;-73
2021/12/03 09:03:05;;;;;;;2.65;1.85;;;;;;;-0.50;100.00;95609.50;5031266;28;24427;-71
2021/12/03 09:05:32;;;;;;;4.45;2.40;;;;;;;-0.54;100.00;95609.63;5031309;28;24426;-71
2021/12/03 09:08:00;;;;;;;3.30;2.20;;;;;;;-0.50;100.00;95604.44;5031332;28;24428;-72
2021/12/03 09:10:26;;;;;;;4.93;2.38;;;;;;;-0.34;100.00;95611.72;5031266;28;24661;-72
2021/12/03 09:12:55;;;;;;;2.78;2.17;;;;;;;-0.26;100.00;95610.69;5031054;28;24420;-72
2021/12/03 09:15:26;;;;;;;3.38;2.42;;;;;;;-0.41;100.00;95605.09;5030692;28;24424;-75
2021/12/03 09:18:04;;;;;;;2.75;1.90;;;;;;;-0.31;100.00;95609.94;5031020;28;24527;-70
2021/12/03 09:20:41;;;;;;;5.78;2.28;;;;;;;0.01;100.00;95610.91;5031202;28;24419;-72
2021/12/03 09:23:12;;;;;;;4.05;2.40;;;;;;;0.13;100.00;95613.13;5030919;28;24437;-72
2021/12/03 09:25:45;;;;;;;2.50;2.15;;;;;;;0.30;100.00;95607.66;5030538;28;25024;-72
2021/12/03 09:28:13;;;;;;;4.20;2.40;;;;;;;0.19;100.00;95604.53;5030535;28;24435;-72
2021/12/03 09:30:41;;;;;;;4.30;2.42;;;;;;;0.26;100.00;95606.06;5030800;28;24451;-70
2021/12/03 09:33:12;;;;;;;4.30;2.67;;;;;;;0.36;100.00;95599.00;5030810;28;24538;-71
2021/12/03 09:35:42;;;;;;;3.00;2.22;;;;;;;0.20;100.00;95598.56;5030492;28;24523;-72
2021/12/03 09:38:09;;;;;;;3.97;2.40;;;;;;;0.39;100.00;95598.91;5030606;28;24493;-72
2021/12/03 09:40:36;;;;;;;10.40;2.87;;;;;;;0.49;100.00;95600.34;5030828;28;24512;-71
2021/12/03 09:43:03;;;;;;;4.07;2.30;;;;;;;0.61;99.59;95594.94;5030554;28;24465;-72
2021/12/03 09:45:31;;;;;;;3.63;2.42;;;;;;;0.60;99.09;95598.38;5030387;28;24462;-72
2021/12/03 09:47:59;;;;;;;3.75;1.98;;;;;;;0.73;98.55;95597.13;5030425;28;24805;-72
2021/12/03 09:50:26;;;;;;;3.60;2.00;;;;;;;0.53;98.32;95603.66;5030444;28;24858;-70
2021/12/03 09:53:08;;;;;;;4.85;2.20;;;;;;;0.55;100.00;95604.44;5030740;28;24431;-72
2021/12/03 09:55:35;;;;;;;4.25;2.33;;;;;;;0.62;98.53;95608.50;5029959;28;24960;-72
2021/12/03 09:58:13;;;;;;;6.57;2.17;;;;;;;0.69;97.89;95593.00;5030133;28;24439;-72
2021/12/03 10:00:45;;;;;;;5.88;2.28;;;;;;;0.81;98.56;95591.00;5030429;28;24527;-72
2021/12/03 10:03:36;;;;;;;4.82;1.92;;;;;;;0.80;98.38;95585.06;5030272;28;24983;-72
2021/12/03 10:14:38;;;;;;;3.40;2.05;;;;;;;1.33;96.48;95577.59;5030252;28;24458;-72
2021/12/03 10:17:35;;;;;;;6.45;2.20;;;;;;;1.18;96.70;95580.59;5029848;28;24423;-72
2021/12/03 10:20:12;;;;;;;3.75;2.13;;;;;;;1.23;96.77;95577.94;5030040;28;24431;-72
2021/12/03 10:25:44;;;;;;;7.53;1.95;;;;;;;1.48;96.01;95571.19;4996609;28;24431;-72
2021/12/03 10:34:19;;;;;;;3.85;1.70;;;;;;;1.64;94.15;95577.50;5004713;28;24423;-72
2021/12/03 10:36:55;;;;;;;3.38;1.80;;;;;;;1.58;94.42;95570.03;5029555;28;24420;-71
2021/12/03 10:42:18;;;;;;;4.72;2.30;;;;;;;1.69;95.62;95564.59;5028972;28;24463;-74
2021/12/03 10:45:17;;;;;;;3.58;2.13;;;;;;;2.09;94.13;95558.22;5030014;28;24419;-73
2021/12/03 10:47:54;;;;;;;4.85;2.00;;;;;;;2.35;94.11;95553.06;5030051;28;24459;-72
2021/12/03 10:50:40;;;;;;;2.70;1.83;;;;;;;1.83;92.15;95553.94;5030076;28;24440;-72
2021/12/03 10:53:23;;;;;;;3.80;2.28;;;;;;;1.83;92.41;95547.13;5029999;28;24426;-74
2021/12/03 10:58:48;;;;;;;3.70;2.17;;;;;;;1.92;91.93;95551.91;5029882;28;24971;-72
2021/12/03 11:37:37;;;;;;;3.05;1.90;;;;;;;1.12;95.94;95515.31;5032434;28;24958;-72
2021/12/03 12:40:24;;;;;;;3.50;2.05;;;;;;;1.39;90.67;95461.75;5108654;28;24803;-70
2021/12/03 14:10:08;;;;;;;6.93;5.17;;;;;;;0.67;96.25;95410.44;5113599;28;24462;-73
2021/12/03 14:41:04;;;;;;;6.30;1.40;;;;;;;0.48;98.26;95400.78;5113068;28;24413;-72
2021/12/03 14:52:03;;;;;;;2.15;1.63;;;;;;;0.48;98.75;95366.81;5101664;28;24474;-71
2021/12/03 14:57:27;;;;;;;2.65;1.33;;;;;;;0.52;97.41;95372.66;5110055;28;24530;-71
2021/12/03 15:00:03;;;;;;;2.83;1.45;;;;;;;0.46;98.44;95368.56;5111416;28;24977;-71
2021/12/03 15:02:45;;;;;;;3.45;1.70;;;;;;;0.39;99.78;95367.09;5112509;28;24469;-72
2021/12/03 15:07:53;;;;;;;4.55;2.08;;;;;;;0.32;99.46;95374.06;5111897;28;24436;-74
2021/12/03 15:10:27;;;;;;;2.65;1.70;;;;;;;0.24;99.69;95365.81;5112333;28;24421;-72
2021/12/03 15:13:21;;;;;;;4.55;1.50;;;;;;;0.24;99.08;95366.66;5112261;28;24833;-73
2021/12/03 15:27:03;;;;;;;8.00;5.10;;;;;;;0.11;100.00;95361.94;5111595;28;24551;-74
2021/12/03 15:32:13;;;;;;;2.90;2.00;;;;;;;0.10;100.00;95356.03;5109187;28;24533;-71
2021/12/03 15:34:48;;;;;;;3.03;1.60;;;;;;;0.00;100.00;95357.19;5111022;28;24955;-73
2021/12/03 15:37:28;;;;;;;4.25;1.60;;;;;;;0.09;100.00;95348.44;5111354;28;24553;-73
2021/12/03 16:04:35;;;;;;;2.63;1.63;;;;;;;-0.07;100.00;95336.16;5110986;28;24436;-72
2021/12/03 16:07:16;;;;;;;3.17;1.77;;;;;;;-0.11;100.00;95342.22;5110872;28;24467;-71
2021/12/03 16:12:40;;;;;;;4.03;2.20;;;;;;;-0.05;100.00;95336.94;5111056;28;24402;-71
2021/12/03 16:15:23;;;;;;;8.95;6.25;;;;;;;-0.12;100.00;95342.25;5110714;28;24428;-71
2021/12/03 16:18:12;;;;;;;6.57;4.97;;;;;;;-0.16;100.00;95338.13;5110981;27;24438;-71
2021/12/03 16:23:42;;;;;;;7.93;4.95;;;;;;;-0.09;100.00;95339.63;5099817;28;24425;-72
2021/12/03 16:26:18;;;;;;;8.57;4.30;;;;;;;-0.14;99.79;95349.94;5110637;28;24515;-72